Buchanan, North Dakota
Current Conditions -  °F | °C
As of 9:56 AM on Monday 24 Nov 2014 (Local Time) from KJMS Reporting Station
Few Clouds Few Clouds  
Wind Chill: -8°   Ceiling: Unl
Heat Index: 12°   Visibility: 10mi
Dew Point:   Wind: 25mph
Humidity: 73%   Direction: 330°NNW
Pressure: 29.77"   Gusts: 36mph
Location:  47.06°N, 98.83°W
Report Text: KJMS 241556Z AUTO 33022G31KT 10SM FEW010 M11/M15 A2977 RMK AO2 PK WND 32032/1532 SLP112 T11111150
Loading
Personal Weather Stations






























Interactive Weather Map New forecast layout! Learn more

10-Day Weather Forecast

Advertisements
Track Severe Weather on mobile